sensor_id;sensor_type;location;lat;lon;timestamp;P1;durP1;ratioP1;P2;durP2;ratioP2
1507;SDS011;745;48.586;10.032;2024-02-28T00:00:24;44.23;;;25.53;;
1507;SDS011;745;48.586;10.032;2024-02-28T00:02:24;45.43;;;25.40;;
1507;SDS011;745;48.586;10.032;2024-02-28T00:04:25;45.50;;;25.07;;
1507;SDS011;745;48.586;10.032;2024-02-28T00:06:25;42.90;;;25.63;;
1507;SDS011;745;48.586;10.032;2024-02-28T00:08:26;44.40;;;26.43;;
1507;SDS011;745;48.586;10.032;2024-02-28T00:10:26;43.33;;;25.03;;
1507;SDS011;745;48.586;10.032;2024-02-28T00:12:26;46.60;;;25.63;;
1507;SDS011;745;48.586;10.032;2024-02-28T00:14:27;39.23;;;24.00;;
1507;SDS011;745;48.586;10.032;2024-02-28T00:16:27;42.53;;;25.37;;
1507;SDS011;745;48.586;10.032;2024-02-28T00:18:28;45.13;;;24.77;;
1507;SDS011;745;48.586;10.032;2024-02-28T00:20:30;46.25;;;26.58;;
1507;SDS011;745;48.586;10.032;2024-02-28T00:22:31;46.75;;;24.63;;
1507;SDS011;745;48.586;10.032;2024-02-28T00:24:31;44.83;;;27.07;;
1507;SDS011;745;48.586;10.032;2024-02-28T00:26:32;40.17;;;24.53;;
1507;SDS011;745;48.586;10.032;2024-02-28T00:28:32;44.73;;;25.03;;
1507;SDS011;745;48.586;10.032;2024-02-28T00:30:32;41.70;;;25.53;;
1507;SDS011;745;48.586;10.032;2024-02-28T00:32:33;47.80;;;26.40;;
1507;SDS011;745;48.586;10.032;2024-02-28T00:34:34;46.13;;;25.27;;
1507;SDS011;745;48.586;10.032;2024-02-28T00:36:34;44.83;;;25.80;;
1507;SDS011;745;48.586;10.032;2024-02-28T00:38:34;46.17;;;24.93;;
1507;SDS011;745;48.586;10.032;2024-02-28T00:40:35;41.20;;;24.87;;
1507;SDS011;745;48.586;10.032;2024-02-28T00:42:35;47.50;;;27.37;;
1507;SDS011;745;48.586;10.032;2024-02-28T00:44:36;42.67;;;25.10;;
1507;SDS011;745;48.586;10.032;2024-02-28T00:46:36;46.97;;;25.93;;
1507;SDS011;745;48.586;10.032;2024-02-28T00:48:36;44.10;;;25.80;;
1507;SDS011;745;48.586;10.032;2024-02-28T00:50:37;54.23;;;27.17;;
1507;SDS011;745;48.586;10.032;2024-02-28T00:52:38;50.30;;;26.70;;
1507;SDS011;745;48.586;10.032;2024-02-28T00:54:39;47.10;;;25.65;;
1507;SDS011;745;48.586;10.032;2024-02-28T00:56:39;52.20;;;26.93;;
1507;SDS011;745;48.586;10.032;2024-02-28T00:58:39;49.63;;;27.67;;
1507;SDS011;745;48.586;10.032;2024-02-28T01:00:40;43.90;;;25.63;;
1507;SDS011;745;48.586;10.032;2024-02-28T01:02:40;42.83;;;25.00;;
1507;SDS011;745;48.586;10.032;2024-02-28T01:04:42;44.53;;;25.38;;
1507;SDS011;745;48.586;10.032;2024-02-28T01:06:43;49.13;;;26.73;;
1507;SDS011;745;48.586;10.032;2024-02-28T01:08:43;43.83;;;25.67;;
1507;SDS011;745;48.586;10.032;2024-02-28T01:10:44;48.23;;;26.13;;
1507;SDS011;745;48.586;10.032;2024-02-28T01:12:45;41.78;;;24.27;;
1507;SDS011;745;48.586;10.032;2024-02-28T01:14:45;46.43;;;24.87;;
1507;SDS011;745;48.586;10.032;2024-02-28T01:16:46;43.87;;;24.80;;
1507;SDS011;745;48.586;10.032;2024-02-28T01:18:46;40.23;;;24.10;;
1507;SDS011;745;48.586;10.032;2024-02-28T01:20:47;47.70;;;25.27;;
1507;SDS011;745;48.586;10.032;2024-02-28T01:22:47;42.00;;;25.13;;
1507;SDS011;745;48.586;10.032;2024-02-28T01:24:48;45.70;;;26.27;;
1507;SDS011;745;48.586;10.032;2024-02-28T01:26:48;46.00;;;26.23;;
1507;SDS011;745;48.586;10.032;2024-02-28T01:28:49;43.03;;;25.33;;
1507;SDS011;745;48.586;10.032;2024-02-28T01:30:49;50.78;;;26.05;;
1507;SDS011;745;48.586;10.032;2024-02-28T01:32:50;46.27;;;24.67;;
1507;SDS011;745;48.586;10.032;2024-02-28T01:34:50;45.63;;;26.27;;
1507;SDS011;745;48.586;10.032;2024-02-28T01:36:50;46.93;;;23.97;;
1507;SDS011;745;48.586;10.032;2024-02-28T01:38:52;44.50;;;24.53;;
1507;SDS011;745;48.586;10.032;2024-02-28T01:40:52;44.85;;;24.60;;
1507;SDS011;745;48.586;10.032;2024-02-28T01:42:52;43.07;;;24.37;;
1507;SDS011;745;48.586;10.032;2024-02-28T01:44:53;48.87;;;25.40;;
1507;SDS011;745;48.586;10.032;2024-02-28T01:46:53;46.50;;;25.37;;
1507;SDS011;745;48.586;10.032;2024-02-28T01:48:56;48.47;;;26.60;;
1507;SDS011;745;48.586;10.032;2024-02-28T01:51:00;42.25;;;24.27;;
1507;SDS011;745;48.586;10.032;2024-02-28T01:53:00;39.97;;;23.13;;
1507;SDS011;745;48.586;10.032;2024-02-28T01:55:01;45.37;;;25.07;;
1507;SDS011;745;48.586;10.032;2024-02-28T01:57:02;48.87;;;26.83;;
1507;SDS011;745;48.586;10.032;2024-02-28T01:59:03;47.78;;;26.75;;
1507;SDS011;745;48.586;10.032;2024-02-28T02:01:04;54.47;;;27.20;;
1507;SDS011;745;48.586;10.032;2024-02-28T02:03:06;51.45;;;26.05;;
1507;SDS011;745;48.586;10.032;2024-02-28T02:05:07;51.33;;;26.67;;
1507;SDS011;745;48.586;10.032;2024-02-28T02:07:09;44.15;;;24.17;;
1507;SDS011;745;48.586;10.032;2024-02-28T02:09:09;47.60;;;25.97;;
1507;SDS011;745;48.586;10.032;2024-02-28T02:11:10;44.13;;;24.30;;
1507;SDS011;745;48.586;10.032;2024-02-28T02:13:10;47.00;;;26.67;;
1507;SDS011;745;48.586;10.032;2024-02-28T02:15:10;47.53;;;24.43;;
1507;SDS011;745;48.586;10.032;2024-02-28T02:17:11;48.33;;;26.07;;
1507;SDS011;745;48.586;10.032;2024-02-28T02:19:11;51.80;;;26.87;;
1507;SDS011;745;48.586;10.032;2024-02-28T02:21:14;42.47;;;25.20;;
1507;SDS011;745;48.586;10.032;2024-02-28T02:23:16;51.92;;;26.55;;
1507;SDS011;745;48.586;10.032;2024-02-28T02:25:17;49.08;;;26.35;;
1507;SDS011;745;48.586;10.032;2024-02-28T02:27:17;48.20;;;25.20;;
1507;SDS011;745;48.586;10.032;2024-02-28T02:29:17;46.17;;;25.50;;
1507;SDS011;745;48.586;10.032;2024-02-28T02:31:18;44.93;;;25.50;;
1507;SDS011;745;48.586;10.032;2024-02-28T02:33:18;38.10;;;23.17;;
1507;SDS011;745;48.586;10.032;2024-02-28T02:35:19;44.73;;;24.00;;
1507;SDS011;745;48.586;10.032;2024-02-28T02:37:19;47.77;;;24.70;;
1507;SDS011;745;48.586;10.032;2024-02-28T02:39:19;47.80;;;25.47;;
1507;SDS011;745;48.586;10.032;2024-02-28T02:41:20;47.57;;;24.43;;
1507;SDS011;745;48.586;10.032;2024-02-28T02:43:20;39.23;;;22.83;;
1507;SDS011;745;48.586;10.032;2024-02-28T02:45:21;48.00;;;24.67;;
1507;SDS011;745;48.586;10.032;2024-02-28T02:47:21;46.57;;;24.57;;
1507;SDS011;745;48.586;10.032;2024-02-28T02:49:21;43.50;;;24.70;;
1507;SDS011;745;48.586;10.032;2024-02-28T02:51:22;45.60;;;24.93;;
1507;SDS011;745;48.586;10.032;2024-02-28T02:53:22;42.27;;;23.07;;
1507;SDS011;745;48.586;10.032;2024-02-28T02:55:23;38.00;;;22.83;;
1507;SDS011;745;48.586;10.032;2024-02-28T02:57:23;48.73;;;26.00;;
1507;SDS011;745;48.586;10.032;2024-02-28T02:59:24;40.33;;;23.30;;
1507;SDS011;745;48.586;10.032;2024-02-28T03:01:24;39.87;;;24.77;;
1507;SDS011;745;48.586;10.032;2024-02-28T03:03:24;42.87;;;24.33;;
1507;SDS011;745;48.586;10.032;2024-02-28T03:05:25;42.60;;;23.80;;
1507;SDS011;745;48.586;10.032;2024-02-28T03:07:25;38.33;;;22.90;;
1507;SDS011;745;48.586;10.032;2024-02-28T03:09:25;49.07;;;26.43;;
1507;SDS011;745;48.586;10.032;2024-02-28T03:11:26;46.97;;;23.87;;
1507;SDS011;745;48.586;10.032;2024-02-28T03:13:26;42.67;;;23.53;;
1507;SDS011;745;48.586;10.032;2024-02-28T03:15:27;40.13;;;23.47;;
1507;SDS011;745;48.586;10.032;2024-02-28T03:17:27;43.10;;;23.73;;
1507;SDS011;745;48.586;10.032;2024-02-28T03:19:27;45.77;;;24.70;;
1507;SDS011;745;48.586;10.032;2024-02-28T03:21:28;41.20;;;24.23;;
1507;SDS011;745;48.586;10.032;2024-02-28T03:23:28;42.13;;;24.00;;
1507;SDS011;745;48.586;10.032;2024-02-28T03:25:28;45.73;;;24.33;;
1507;SDS011;745;48.586;10.032;2024-02-28T03:27:29;47.67;;;23.90;;
1507;SDS011;745;48.586;10.032;2024-02-28T03:29:29;47.17;;;26.00;;
1507;SDS011;745;48.586;10.032;2024-02-28T03:31:29;44.60;;;24.17;;
1507;SDS011;745;48.586;10.032;2024-02-28T03:33:30;46.47;;;25.93;;
1507;SDS011;745;48.586;10.032;2024-02-28T03:35:32;39.50;;;23.20;;
1507;SDS011;745;48.586;10.032;2024-02-28T03:37:33;44.87;;;23.43;;
1507;SDS011;745;48.586;10.032;2024-02-28T03:39:33;51.93;;;25.43;;
1507;SDS011;745;48.586;10.032;2024-02-28T03:41:33;49.67;;;25.20;;
1507;SDS011;745;48.586;10.032;2024-02-28T03:43:34;45.00;;;24.70;;
1507;SDS011;745;48.586;10.032;2024-02-28T03:45:37;44.73;;;24.87;;
1507;SDS011;745;48.586;10.032;2024-02-28T03:47:38;43.15;;;24.10;;
1507;SDS011;745;48.586;10.032;2024-02-28T03:49:38;47.20;;;26.07;;
1507;SDS011;745;48.586;10.032;2024-02-28T03:51:39;41.80;;;23.80;;
1507;SDS011;745;48.586;10.032;2024-02-28T03:53:41;49.85;;;26.73;;
1507;SDS011;745;48.586;10.032;2024-02-28T03:55:41;39.13;;;23.23;;
1507;SDS011;745;48.586;10.032;2024-02-28T03:57:46;55.15;;;26.83;;
1507;SDS011;745;48.586;10.032;2024-02-28T03:59:47;43.88;;;25.30;;
1507;SDS011;745;48.586;10.032;2024-02-28T04:01:47;47.50;;;24.10;;
1507;SDS011;745;48.586;10.032;2024-02-28T04:03:48;44.67;;;24.27;;
1507;SDS011;745;48.586;10.032;2024-02-28T04:05:48;41.90;;;23.00;;
1507;SDS011;745;48.586;10.032;2024-02-28T04:07:48;43.80;;;24.50;;
1507;SDS011;745;48.586;10.032;2024-02-28T04:09:49;46.27;;;23.50;;
1507;SDS011;745;48.586;10.032;2024-02-28T04:11:49;44.77;;;24.57;;
1507;SDS011;745;48.586;10.032;2024-02-28T04:13:49;43.40;;;24.67;;
1507;SDS011;745;48.586;10.032;2024-02-28T04:15:50;45.50;;;23.57;;
1507;SDS011;745;48.586;10.032;2024-02-28T04:17:50;46.87;;;26.80;;
1507;SDS011;745;48.586;10.032;2024-02-28T04:19:50;44.40;;;24.90;;
1507;SDS011;745;48.586;10.032;2024-02-28T04:21:51;42.93;;;23.70;;
1507;SDS011;745;48.586;10.032;2024-02-28T04:23:51;46.93;;;25.03;;
1507;SDS011;745;48.586;10.032;2024-02-28T04:25:52;52.60;;;26.13;;
1507;SDS011;745;48.586;10.032;2024-02-28T04:27:52;46.03;;;25.40;;
1507;SDS011;745;48.586;10.032;2024-02-28T04:29:52;45.97;;;24.70;;
1507;SDS011;745;48.586;10.032;2024-02-28T04:31:53;45.63;;;26.23;;
1507;SDS011;745;48.586;10.032;2024-02-28T04:33:53;47.37;;;25.10;;
1507;SDS011;745;48.586;10.032;2024-02-28T04:35:53;44.73;;;24.87;;
1507;SDS011;745;48.586;10.032;2024-02-28T04:37:53;48.90;;;25.77;;
1507;SDS011;745;48.586;10.032;2024-02-28T04:39:54;42.97;;;23.97;;
1507;SDS011;745;48.586;10.032;2024-02-28T04:41:54;40.47;;;23.60;;
1507;SDS011;745;48.586;10.032;2024-02-28T04:43:54;46.10;;;24.43;;
1507;SDS011;745;48.586;10.032;2024-02-28T04:45:55;43.63;;;24.00;;
1507;SDS011;745;48.586;10.032;2024-02-28T04:47:56;44.00;;;24.50;;
1507;SDS011;745;48.586;10.032;2024-02-28T04:49:58;42.53;;;24.50;;
1507;SDS011;745;48.586;10.032;2024-02-28T04:51:58;43.92;;;23.00;;
1507;SDS011;745;48.586;10.032;2024-02-28T04:53:59;40.53;;;22.27;;
1507;SDS011;745;48.586;10.032;2024-02-28T04:55:59;45.30;;;24.80;;
1507;SDS011;745;48.586;10.032;2024-02-28T04:57:59;43.67;;;24.77;;
1507;SDS011;745;48.586;10.032;2024-02-28T05:00:00;41.10;;;23.80;;
1507;SDS011;745;48.586;10.032;2024-02-28T05:02:01;45.63;;;23.20;;
1507;SDS011;745;48.586;10.032;2024-02-28T05:04:01;45.23;;;25.20;;
1507;SDS011;745;48.586;10.032;2024-02-28T05:06:02;48.80;;;24.77;;
1507;SDS011;745;48.586;10.032;2024-02-28T05:08:03;55.07;;;24.90;;
1507;SDS011;745;48.586;10.032;2024-02-28T05:10:03;49.70;;;25.87;;
1507;SDS011;745;48.586;10.032;2024-02-28T05:12:05;43.40;;;25.10;;
1507;SDS011;745;48.586;10.032;2024-02-28T05:14:05;42.90;;;24.27;;
1507;SDS011;745;48.586;10.032;2024-02-28T05:16:11;43.23;;;23.53;;
1507;SDS011;745;48.586;10.032;2024-02-28T05:18:13;44.42;;;23.15;;
1507;SDS011;745;48.586;10.032;2024-02-28T05:20:13;41.40;;;22.80;;
1507;SDS011;745;48.586;10.032;2024-02-28T05:22:13;41.67;;;23.03;;
1507;SDS011;745;48.586;10.032;2024-02-28T05:24:14;41.40;;;23.13;;
1507;SDS011;745;48.586;10.032;2024-02-28T05:26:14;45.47;;;22.63;;
1507;SDS011;745;48.586;10.032;2024-02-28T05:28:15;44.33;;;23.20;;
1507;SDS011;745;48.586;10.032;2024-02-28T05:30:15;42.87;;;23.33;;
1507;SDS011;745;48.586;10.032;2024-02-28T05:32:16;42.43;;;22.53;;
1507;SDS011;745;48.586;10.032;2024-02-28T05:34:17;49.85;;;25.45;;
1507;SDS011;745;48.586;10.032;2024-02-28T05:36:17;46.30;;;26.37;;
1507;SDS011;745;48.586;10.032;2024-02-28T05:38:18;40.28;;;23.98;;
1507;SDS011;745;48.586;10.032;2024-02-28T05:40:18;47.00;;;24.27;;
1507;SDS011;745;48.586;10.032;2024-02-28T05:42:19;43.53;;;24.30;;
1507;SDS011;745;48.586;10.032;2024-02-28T05:44:22;47.08;;;24.90;;
1507;SDS011;745;48.586;10.032;2024-02-28T05:46:22;46.63;;;23.53;;
1507;SDS011;745;48.586;10.032;2024-02-28T05:48:22;41.80;;;24.00;;
1507;SDS011;745;48.586;10.032;2024-02-28T05:50:23;44.50;;;24.30;;
1507;SDS011;745;48.586;10.032;2024-02-28T05:52:23;44.10;;;25.07;;
1507;SDS011;745;48.586;10.032;2024-02-28T05:54:25;45.83;;;22.45;;
1507;SDS011;745;48.586;10.032;2024-02-28T05:56:25;42.50;;;22.50;;
1507;SDS011;745;48.586;10.032;2024-02-28T05:58:26;46.37;;;23.50;;
1507;SDS011;745;48.586;10.032;2024-02-28T06:00:27;46.72;;;24.48;;
1507;SDS011;745;48.586;10.032;2024-02-28T06:02:28;41.80;;;22.87;;
1507;SDS011;745;48.586;10.032;2024-02-28T06:04:28;44.63;;;23.13;;
1507;SDS011;745;48.586;10.032;2024-02-28T06:06:28;48.10;;;23.37;;
1507;SDS011;745;48.586;10.032;2024-02-28T06:08:29;43.13;;;23.30;;
1507;SDS011;745;48.586;10.032;2024-02-28T06:10:29;42.93;;;23.70;;
1507;SDS011;745;48.586;10.032;2024-02-28T06:12:30;41.33;;;24.43;;
1507;SDS011;745;48.586;10.032;2024-02-28T06:14:30;49.60;;;24.97;;
1507;SDS011;745;48.586;10.032;2024-02-28T06:16:31;45.30;;;24.37;;
1507;SDS011;745;48.586;10.032;2024-02-28T06:18:32;44.80;;;22.75;;
1507;SDS011;745;48.586;10.032;2024-02-28T06:20:34;40.72;;;22.58;;
1507;SDS011;745;48.586;10.032;2024-02-28T06:22:34;42.15;;;22.42;;
1507;SDS011;745;48.586;10.032;2024-02-28T06:24:34;43.93;;;23.00;;
1507;SDS011;745;48.586;10.032;2024-02-28T06:26:35;44.63;;;23.63;;
1507;SDS011;745;48.586;10.032;2024-02-28T06:28:35;46.13;;;24.37;;
1507;SDS011;745;48.586;10.032;2024-02-28T06:30:35;43.80;;;22.50;;
1507;SDS011;745;48.586;10.032;2024-02-28T06:32:35;43.10;;;23.77;;
1507;SDS011;745;48.586;10.032;2024-02-28T06:34:36;45.00;;;23.20;;
1507;SDS011;745;48.586;10.032;2024-02-28T06:36:37;38.20;;;22.20;;
1507;SDS011;745;48.586;10.032;2024-02-28T06:38:37;40.87;;;22.10;;
1507;SDS011;745;48.586;10.032;2024-02-28T06:40:38;50.87;;;24.70;;
1507;SDS011;745;48.586;10.032;2024-02-28T06:42:38;46.80;;;23.70;;
1507;SDS011;745;48.586;10.032;2024-02-28T06:44:38;42.40;;;23.00;;
1507;SDS011;745;48.586;10.032;2024-02-28T06:46:39;40.03;;;22.63;;
1507;SDS011;745;48.586;10.032;2024-02-28T06:48:39;50.43;;;23.80;;
1507;SDS011;745;48.586;10.032;2024-02-28T06:50:40;47.57;;;23.27;;
1507;SDS011;745;48.586;10.032;2024-02-28T06:52:41;39.37;;;21.60;;
1507;SDS011;745;48.586;10.032;2024-02-28T06:54:42;51.42;;;24.05;;
1507;SDS011;745;48.586;10.032;2024-02-28T06:56:42;42.30;;;24.50;;
1507;SDS011;745;48.586;10.032;2024-02-28T06:58:42;44.47;;;23.60;;
1507;SDS011;745;48.586;10.032;2024-02-28T07:00:43;45.73;;;22.77;;
1507;SDS011;745;48.586;10.032;2024-02-28T07:02:43;49.33;;;23.13;;
1507;SDS011;745;48.586;10.032;2024-02-28T07:04:43;46.60;;;23.63;;
1507;SDS011;745;48.586;10.032;2024-02-28T07:06:44;46.30;;;21.83;;
1507;SDS011;745;48.586;10.032;2024-02-28T07:08:44;42.90;;;21.90;;
1507;SDS011;745;48.586;10.032;2024-02-28T07:10:45;40.40;;;20.80;;
1507;SDS011;745;48.586;10.032;2024-02-28T07:12:49;46.00;;;22.38;;
1507;SDS011;745;48.586;10.032;2024-02-28T07:14:49;40.40;;;22.23;;
1507;SDS011;745;48.586;10.032;2024-02-28T07:16:49;47.43;;;21.77;;
1507;SDS011;745;48.586;10.032;2024-02-28T07:18:52;45.88;;;23.98;;
1507;SDS011;745;48.586;10.032;2024-02-28T07:20:52;44.97;;;22.40;;
1507;SDS011;745;48.586;10.032;2024-02-28T07:22:52;43.07;;;23.17;;
1507;SDS011;745;48.586;10.032;2024-02-28T07:24:52;48.87;;;23.30;;
1507;SDS011;745;48.586;10.032;2024-02-28T07:26:53;46.43;;;24.10;;
1507;SDS011;745;48.586;10.032;2024-02-28T07:28:53;40.60;;;23.27;;
1507;SDS011;745;48.586;10.032;2024-02-28T07:30:53;43.20;;;23.37;;
1507;SDS011;745;48.586;10.032;2024-02-28T07:32:54;39.13;;;21.50;;
1507;SDS011;745;48.586;10.032;2024-02-28T07:34:54;44.03;;;22.53;;
1507;SDS011;745;48.586;10.032;2024-02-28T07:36:55;52.50;;;23.90;;
1507;SDS011;745;48.586;10.032;2024-02-28T07:38:56;37.73;;;21.10;;
1507;SDS011;745;48.586;10.032;2024-02-28T07:40:57;46.53;;;22.55;;
1507;SDS011;745;48.586;10.032;2024-02-28T07:42:58;43.47;;;23.40;;
1507;SDS011;745;48.586;10.032;2024-02-28T07:44:58;46.37;;;24.10;;
1507;SDS011;745;48.586;10.032;2024-02-28T07:46:58;49.93;;;24.30;;
1507;SDS011;745;48.586;10.032;2024-02-28T07:48:59;50.20;;;24.90;;
1507;SDS011;745;48.586;10.032;2024-02-28T07:51:00;46.78;;;23.30;;
1507;SDS011;745;48.586;10.032;2024-02-28T07:53:01;47.83;;;23.57;;
1507;SDS011;745;48.586;10.032;2024-02-28T07:55:01;46.80;;;23.03;;
1507;SDS011;745;48.586;10.032;2024-02-28T07:57:02;45.60;;;24.60;;
1507;SDS011;745;48.586;10.032;2024-02-28T07:59:02;47.93;;;24.67;;
1507;SDS011;745;48.586;10.032;2024-02-28T08:01:03;49.30;;;25.20;;
1507;SDS011;745;48.586;10.032;2024-02-28T08:03:03;44.00;;;22.07;;
1507;SDS011;745;48.586;10.032;2024-02-28T08:05:04;44.03;;;23.43;;
1507;SDS011;745;48.586;10.032;2024-02-28T08:07:04;40.97;;;21.63;;
1507;SDS011;745;48.586;10.032;2024-02-28T08:09:05;42.17;;;23.02;;
1507;SDS011;745;48.586;10.032;2024-02-28T08:11:06;49.87;;;23.60;;
1507;SDS011;745;48.586;10.032;2024-02-28T08:13:06;50.50;;;24.93;;
1507;SDS011;745;48.586;10.032;2024-02-28T08:15:07;49.53;;;24.38;;
1507;SDS011;745;48.586;10.032;2024-02-28T08:17:08;45.70;;;23.60;;
1507;SDS011;745;48.586;10.032;2024-02-28T08:19:08;53.87;;;25.10;;
1507;SDS011;745;48.586;10.032;2024-02-28T08:21:09;50.23;;;24.50;;
1507;SDS011;745;48.586;10.032;2024-02-28T08:23:09;49.90;;;25.17;;
1507;SDS011;745;48.586;10.032;2024-02-28T08:25:09;54.03;;;25.17;;
1507;SDS011;745;48.586;10.032;2024-02-28T08:27:11;49.50;;;23.67;;
1507;SDS011;745;48.586;10.032;2024-02-28T08:29:12;43.80;;;22.83;;
1507;SDS011;745;48.586;10.032;2024-02-28T08:31:12;52.80;;;24.97;;
1507;SDS011;745;48.586;10.032;2024-02-28T08:33:13;51.13;;;22.77;;
1507;SDS011;745;48.586;10.032;2024-02-28T08:35:13;47.27;;;24.87;;
1507;SDS011;745;48.586;10.032;2024-02-28T08:37:14;48.30;;;25.07;;
1507;SDS011;745;48.586;10.032;2024-02-28T08:39:15;45.67;;;23.58;;
1507;SDS011;745;48.586;10.032;2024-02-28T08:41:16;45.07;;;23.20;;
1507;SDS011;745;48.586;10.032;2024-02-28T08:43:17;47.97;;;24.58;;
1507;SDS011;745;48.586;10.032;2024-02-28T08:45:17;48.50;;;24.57;;
1507;SDS011;745;48.586;10.032;2024-02-28T08:47:17;48.37;;;24.57;;
1507;SDS011;745;48.586;10.032;2024-02-28T08:49:19;48.35;;;24.35;;
1507;SDS011;745;48.586;10.032;2024-02-28T08:51:19;44.20;;;24.10;;
1507;SDS011;745;48.586;10.032;2024-02-28T08:53:19;45.27;;;22.13;;
1507;SDS011;745;48.586;10.032;2024-02-28T08:55:20;38.30;;;21.40;;
1507;SDS011;745;48.586;10.032;2024-02-28T08:57:21;44.08;;;22.98;;
1507;SDS011;745;48.586;10.032;2024-02-28T08:59:23;46.88;;;22.90;;
1507;SDS011;745;48.586;10.032;2024-02-28T09:01:23;44.90;;;23.60;;
1507;SDS011;745;48.586;10.032;2024-02-28T09:03:24;48.13;;;22.83;;
1507;SDS011;745;48.586;10.032;2024-02-28T09:05:24;41.93;;;22.07;;
1507;SDS011;745;48.586;10.032;2024-02-28T09:07:25;43.27;;;23.40;;
1507;SDS011;745;48.586;10.032;2024-02-28T09:09:25;49.90;;;24.20;;
1507;SDS011;745;48.586;10.032;2024-02-28T09:11:25;47.03;;;22.37;;
1507;SDS011;745;48.586;10.032;2024-02-28T09:13:26;46.70;;;24.00;;
1507;SDS011;745;48.586;10.032;2024-02-28T09:15:27;42.17;;;22.08;;
1507;SDS011;745;48.586;10.032;2024-02-28T09:17:28;43.40;;;22.90;;
1507;SDS011;745;48.586;10.032;2024-02-28T09:19:29;44.97;;;23.03;;
1507;SDS011;745;48.586;10.032;2024-02-28T09:21:29;51.25;;;26.13;;
1507;SDS011;745;48.586;10.032;2024-02-28T09:23:30;48.40;;;22.77;;
1507;SDS011;745;48.586;10.032;2024-02-28T09:25:31;46.07;;;23.27;;
1507;SDS011;745;48.586;10.032;2024-02-28T09:27:32;45.55;;;23.65;;
1507;SDS011;745;48.586;10.032;2024-02-28T09:29:33;43.80;;;24.70;;
1507;SDS011;745;48.586;10.032;2024-02-28T09:31:33;52.20;;;25.30;;
1507;SDS011;745;48.586;10.032;2024-02-28T09:33:33;48.53;;;24.97;;
1507;SDS011;745;48.586;10.032;2024-02-28T09:35:34;49.57;;;25.80;;
1507;SDS011;745;48.586;10.032;2024-02-28T09:37:36;43.28;;;22.88;;
1507;SDS011;745;48.586;10.032;2024-02-28T09:39:37;41.00;;;23.35;;
1507;SDS011;745;48.586;10.032;2024-02-28T09:41:39;44.30;;;22.35;;
1507;SDS011;745;48.586;10.032;2024-02-28T09:43:42;43.28;;;21.25;;
1507;SDS011;745;48.586;10.032;2024-02-28T09:45:43;49.08;;;23.13;;
1507;SDS011;745;48.586;10.032;2024-02-28T09:47:43;46.63;;;23.67;;
1507;SDS011;745;48.586;10.032;2024-02-28T09:49:44;48.00;;;24.27;;
1507;SDS011;745;48.586;10.032;2024-02-28T09:51:46;48.03;;;24.65;;
1507;SDS011;745;48.586;10.032;2024-02-28T09:53:49;49.25;;;25.60;;
1507;SDS011;745;48.586;10.032;2024-02-28T09:55:50;42.70;;;23.53;;
1507;SDS011;745;48.586;10.032;2024-02-28T09:57:51;46.90;;;23.27;;
1507;SDS011;745;48.586;10.032;2024-02-28T09:59:52;52.85;;;25.25;;
1507;SDS011;745;48.586;10.032;2024-02-28T10:01:53;49.57;;;23.30;;
1507;SDS011;745;48.586;10.032;2024-02-28T10:03:57;47.60;;;24.45;;
1507;SDS011;745;48.586;10.032;2024-02-28T10:05:59;53.95;;;24.38;;
1507;SDS011;745;48.586;10.032;2024-02-28T10:07:59;41.30;;;23.20;;
1507;SDS011;745;48.586;10.032;2024-02-28T10:10:00;47.27;;;23.47;;
1507;SDS011;745;48.586;10.032;2024-02-28T10:12:02;48.90;;;24.97;;
1507;SDS011;745;48.586;10.032;2024-02-28T10:14:02;41.88;;;23.63;;
1507;SDS011;745;48.586;10.032;2024-02-28T10:16:06;51.83;;;23.93;;
1507;SDS011;745;48.586;10.032;2024-02-28T10:18:06;53.20;;;25.95;;
1507;SDS011;745;48.586;10.032;2024-02-28T10:20:07;48.50;;;23.20;;
1507;SDS011;745;48.586;10.032;2024-02-28T10:22:09;48.10;;;22.80;;
1507;SDS011;745;48.586;10.032;2024-02-28T10:24:11;52.10;;;25.50;;
1507;SDS011;745;48.586;10.032;2024-02-28T10:26:13;48.85;;;25.10;;
1507;SDS011;745;48.586;10.032;2024-02-28T10:28:13;53.50;;;23.97;;
1507;SDS011;745;48.586;10.032;2024-02-28T10:30:14;49.97;;;24.38;;
1507;SDS011;745;48.586;10.032;2024-02-28T10:32:17;43.17;;;22.88;;
1507;SDS011;745;48.586;10.032;2024-02-28T10:34:17;41.80;;;20.83;;
1507;SDS011;745;48.586;10.032;2024-02-28T10:36:18;42.40;;;22.75;;
1507;SDS011;745;48.586;10.032;2024-02-28T10:38:19;41.17;;;22.23;;
1507;SDS011;745;48.586;10.032;2024-02-28T10:40:20;41.60;;;22.30;;
1507;SDS011;745;48.586;10.032;2024-02-28T10:42:21;40.00;;;22.48;;
1507;SDS011;745;48.586;10.032;2024-02-28T10:44:23;36.33;;;19.48;;
1507;SDS011;745;48.586;10.032;2024-02-28T10:46:26;41.10;;;21.90;;
1507;SDS011;745;48.586;10.032;2024-02-28T10:48:27;40.13;;;21.60;;
1507;SDS011;745;48.586;10.032;2024-02-28T10:50:27;34.90;;;20.03;;
1507;SDS011;745;48.586;10.032;2024-02-28T10:52:28;42.13;;;21.33;;
1507;SDS011;745;48.586;10.032;2024-02-28T10:54:29;35.47;;;20.08;;
1507;SDS011;745;48.586;10.032;2024-02-28T10:56:31;34.17;;;20.15;;
1507;SDS011;745;48.586;10.032;2024-02-28T10:58:35;37.30;;;19.33;;
1507;SDS011;745;48.586;10.032;2024-02-28T11:00:39;33.45;;;17.42;;
1507;SDS011;745;48.586;10.032;2024-02-28T11:02:41;38.47;;;20.58;;
1507;SDS011;745;48.586;10.032;2024-02-28T11:04:43;37.47;;;19.80;;
1507;SDS011;745;48.586;10.032;2024-02-28T11:06:50;31.75;;;19.67;;
1507;SDS011;745;48.586;10.032;2024-02-28T11:08:55;34.70;;;18.48;;
1507;SDS011;745;48.586;10.032;2024-02-28T11:11:02;33.97;;;18.88;;
1507;SDS011;745;48.586;10.032;2024-02-28T11:13:05;36.70;;;19.42;;
1507;SDS011;745;48.586;10.032;2024-02-28T11:15:06;35.70;;;19.87;;
1507;SDS011;745;48.586;10.032;2024-02-28T11:17:17;39.22;;;20.00;;
1507;SDS011;745;48.586;10.032;2024-02-28T11:19:27;38.40;;;20.13;;
1507;SDS011;745;48.586;10.032;2024-02-28T11:21:29;33.90;;;19.00;;
1507;SDS011;745;48.586;10.032;2024-02-28T11:23:36;33.27;;;19.10;;
1507;SDS011;745;48.586;10.032;2024-02-28T11:25:37;39.63;;;21.08;;
1507;SDS011;745;48.586;10.032;2024-02-28T11:27:49;39.07;;;20.00;;
1507;SDS011;745;48.586;10.032;2024-02-28T11:29:50;36.80;;;19.90;;
1507;SDS011;745;48.586;10.032;2024-02-28T11:31:50;31.63;;;18.33;;
1507;SDS011;745;48.586;10.032;2024-02-28T11:33:51;34.03;;;18.30;;
1507;SDS011;745;48.586;10.032;2024-02-28T11:35:55;34.03;;;18.10;;
1507;SDS011;745;48.586;10.032;2024-02-28T11:37:59;31.33;;;17.65;;
1507;SDS011;745;48.586;10.032;2024-02-28T11:39:59;32.70;;;18.53;;
1507;SDS011;745;48.586;10.032;2024-02-28T11:42:12;30.20;;;18.03;;
1507;SDS011;745;48.586;10.032;2024-02-28T11:44:15;37.63;;;19.67;;
1507;SDS011;745;48.586;10.032;2024-02-28T11:46:15;31.63;;;17.98;;
1507;SDS011;745;48.586;10.032;2024-02-28T11:48:18;35.15;;;20.25;;
1507;SDS011;745;48.586;10.032;2024-02-28T11:50:18;34.53;;;18.80;;
1507;SDS011;745;48.586;10.032;2024-02-28T11:52:19;32.37;;;17.97;;
1507;SDS011;745;48.586;10.032;2024-02-28T11:54:19;28.33;;;17.37;;
1507;SDS011;745;48.586;10.032;2024-02-28T11:56:19;33.70;;;19.10;;
1507;SDS011;745;48.586;10.032;2024-02-28T11:58:21;33.53;;;19.55;;
1507;SDS011;745;48.586;10.032;2024-02-28T12:00:22;34.07;;;19.70;;
1507;SDS011;745;48.586;10.032;2024-02-28T12:02:22;37.47;;;19.73;;
1507;SDS011;745;48.586;10.032;2024-02-28T12:04:25;33.13;;;19.15;;
1507;SDS011;745;48.586;10.032;2024-02-28T12:06:26;29.77;;;17.40;;
1507;SDS011;745;48.586;10.032;2024-02-28T12:08:27;32.13;;;19.50;;